Huron, Kansas
Current Conditions -  °F | °C
As of 7:31 PM on Sunday 23 Nov 2014 (Local Time) from KSTJ Reporting Station
Light Rain Light Rain  
Wind Chill: 31°   Ceiling: 2100
Heat Index: 41°   Visibility: 8mi
Dew Point: 37°   Wind: 24mph
Humidity: 86%   Direction: 340°NNW
Pressure: 29.49"   Gusts: 43mph
Location:  39.6039°N, 95.3094°W
Report Text: KSTJ 240131Z AUTO 34021G37KT 8SM -RA BKN021 OVC029 05/03 A2949 RMK AO2 PK WND 35037/0131 P0003 T00500028
Loading
Personal Weather Stations






























Interactive Weather Map New forecast layout! Learn more

10-Day Weather Forecast

Advertisements
Track Severe Weather on mobile